sensor_id;sensor_type;location;lat;lon;timestamp;P1;durP1;ratioP1;P2;durP2;ratioP2
43756;SDS011;45574;41.864;12.462;2022-10-16T00:00:37;41.08;;;28.98;;
43756;SDS011;45574;41.864;12.462;2022-10-16T00:03:25;44.92;;;30.13;;
43756;SDS011;45574;41.864;12.462;2022-10-16T00:06:12;47.13;;;28.88;;
43756;SDS011;45574;41.864;12.462;2022-10-16T00:09:00;43.20;;;30.13;;
43756;SDS011;45574;41.864;12.462;2022-10-16T00:11:46;41.20;;;28.00;;
43756;SDS011;45574;41.864;12.462;2022-10-16T00:14:33;43.85;;;28.52;;
43756;SDS011;45574;41.864;12.462;2022-10-16T00:17:19;41.35;;;27.45;;
43756;SDS011;45574;41.864;12.462;2022-10-16T00:20:10;41.42;;;27.23;;
43756;SDS011;45574;41.864;12.462;2022-10-16T00:22:57;36.08;;;25.65;;
43756;SDS011;45574;41.864;12.462;2022-10-16T00:25:43;35.70;;;26.20;;
43756;SDS011;45574;41.864;12.462;2022-10-16T00:28:30;35.90;;;26.13;;
43756;SDS011;45574;41.864;12.462;2022-10-16T00:31:18;37.05;;;25.67;;
43756;SDS011;45574;41.864;12.462;2022-10-16T00:34:07;34.13;;;25.15;;
43756;SDS011;45574;41.864;12.462;2022-10-16T00:36:53;40.33;;;25.92;;
43756;SDS011;45574;41.864;12.462;2022-10-16T00:39:40;39.42;;;26.15;;
43756;SDS011;45574;41.864;12.462;2022-10-16T00:42:26;41.55;;;25.75;;
43756;SDS011;45574;41.864;12.462;2022-10-16T00:45:13;38.50;;;25.58;;
43756;SDS011;45574;41.864;12.462;2022-10-16T00:48:03;35.42;;;26.17;;
43756;SDS011;45574;41.864;12.462;2022-10-16T00:50:49;36.90;;;24.70;;
43756;SDS011;45574;41.864;12.462;2022-10-16T00:53:36;36.40;;;25.17;;
43756;SDS011;45574;41.864;12.462;2022-10-16T00:56:22;31.73;;;24.27;;
43756;SDS011;45574;41.864;12.462;2022-10-16T00:59:11;34.13;;;24.23;;
43756;SDS011;45574;41.864;12.462;2022-10-16T01:02:02;37.85;;;25.35;;
43756;SDS011;45574;41.864;12.462;2022-10-16T01:04:51;33.75;;;23.42;;
43756;SDS011;45574;41.864;12.462;2022-10-16T01:07:48;35.03;;;24.80;;
43756;SDS011;45574;41.864;12.462;2022-10-16T01:13:46;33.22;;;23.98;;
43756;SDS011;45574;41.864;12.462;2022-10-16T01:16:43;35.15;;;23.23;;
43756;SDS011;45574;41.864;12.462;2022-10-16T01:29:09;30.38;;;22.35;;
43756;SDS011;45574;41.864;12.462;2022-10-16T01:32:15;31.15;;;21.08;;
43756;SDS011;45574;41.864;12.462;2022-10-16T01:35:26;30.33;;;20.65;;
43756;SDS011;45574;41.864;12.462;2022-10-16T01:38:21;26.80;;;20.65;;
43756;SDS011;45574;41.864;12.462;2022-10-16T01:41:19;34.15;;;20.83;;
43756;SDS011;45574;41.864;12.462;2022-10-16T01:44:13;30.17;;;20.75;;
43756;SDS011;45574;41.864;12.462;2022-10-16T01:47:05;30.13;;;20.88;;
43756;SDS011;45574;41.864;12.462;2022-10-16T01:49:53;29.35;;;21.23;;
43756;SDS011;45574;41.864;12.462;2022-10-16T01:52:42;35.33;;;21.15;;
43756;SDS011;45574;41.864;12.462;2022-10-16T01:55:32;29.55;;;20.27;;
43756;SDS011;45574;41.864;12.462;2022-10-16T01:58:23;31.35;;;20.75;;
43756;SDS011;45574;41.864;12.462;2022-10-16T02:01:12;26.92;;;19.50;;
43756;SDS011;45574;41.864;12.462;2022-10-16T02:04:02;28.25;;;19.63;;
43756;SDS011;45574;41.864;12.462;2022-10-16T02:06:53;29.23;;;19.45;;
43756;SDS011;45574;41.864;12.462;2022-10-16T02:09:41;25.73;;;19.52;;
43756;SDS011;45574;41.864;12.462;2022-10-16T02:12:29;27.20;;;18.90;;
43756;SDS011;45574;41.864;12.462;2022-10-16T02:15:19;25.23;;;18.23;;
43756;SDS011;45574;41.864;12.462;2022-10-16T02:18:06;28.17;;;18.35;;
43756;SDS011;45574;41.864;12.462;2022-10-16T02:24:17;26.00;;;17.95;;
43756;SDS011;45574;41.864;12.462;2022-10-16T02:27:06;26.90;;;18.52;;
43756;SDS011;45574;41.864;12.462;2022-10-16T02:30:11;26.75;;;16.73;;
43756;SDS011;45574;41.864;12.462;2022-10-16T02:33:07;26.17;;;18.15;;
43756;SDS011;45574;41.864;12.462;2022-10-16T02:35:59;24.20;;;17.42;;
43756;SDS011;45574;41.864;12.462;2022-10-16T02:38:46;24.73;;;17.27;;
43756;SDS011;45574;41.864;12.462;2022-10-16T02:41:33;28.45;;;18.52;;
43756;SDS011;45574;41.864;12.462;2022-10-16T02:44:19;28.15;;;18.52;;
43756;SDS011;45574;41.864;12.462;2022-10-16T02:47:06;26.13;;;18.38;;
43756;SDS011;45574;41.864;12.462;2022-10-16T02:49:52;26.63;;;18.27;;
43756;SDS011;45574;41.864;12.462;2022-10-16T02:52:39;27.23;;;17.52;;
43756;SDS011;45574;41.864;12.462;2022-10-16T02:55:26;28.38;;;17.67;;
43756;SDS011;45574;41.864;12.462;2022-10-16T02:58:13;37.05;;;18.52;;
43756;SDS011;45574;41.864;12.462;2022-10-16T03:00:59;25.70;;;16.38;;
43756;SDS011;45574;41.864;12.462;2022-10-16T03:03:46;30.08;;;17.73;;
43756;SDS011;45574;41.864;12.462;2022-10-16T03:06:33;23.80;;;17.42;;
43756;SDS011;45574;41.864;12.462;2022-10-16T03:09:20;24.52;;;16.20;;
43756;SDS011;45574;41.864;12.462;2022-10-16T03:12:07;21.20;;;16.88;;
43756;SDS011;45574;41.864;12.462;2022-10-16T03:14:55;24.73;;;16.35;;
43756;SDS011;45574;41.864;12.462;2022-10-16T03:17:42;28.20;;;17.55;;
43756;SDS011;45574;41.864;12.462;2022-10-16T03:20:29;27.70;;;16.83;;
43756;SDS011;45574;41.864;12.462;2022-10-16T03:23:16;24.55;;;16.60;;
43756;SDS011;45574;41.864;12.462;2022-10-16T03:26:02;24.13;;;16.20;;
43756;SDS011;45574;41.864;12.462;2022-10-16T03:28:48;22.88;;;16.48;;
43756;SDS011;45574;41.864;12.462;2022-10-16T03:31:35;34.88;;;18.60;;
43756;SDS011;45574;41.864;12.462;2022-10-16T03:34:21;26.70;;;16.58;;
43756;SDS011;45574;41.864;12.462;2022-10-16T03:37:08;27.42;;;16.35;;
43756;SDS011;45574;41.864;12.462;2022-10-16T03:39:56;22.92;;;16.08;;
43756;SDS011;45574;41.864;12.462;2022-10-16T03:42:43;23.85;;;16.08;;
43756;SDS011;45574;41.864;12.462;2022-10-16T03:45:30;25.10;;;16.05;;
43756;SDS011;45574;41.864;12.462;2022-10-16T03:48:17;25.75;;;16.60;;
43756;SDS011;45574;41.864;12.462;2022-10-16T03:51:04;21.23;;;14.65;;
43756;SDS011;45574;41.864;12.462;2022-10-16T03:53:50;25.45;;;15.57;;
43756;SDS011;45574;41.864;12.462;2022-10-16T03:56:37;21.42;;;15.48;;
43756;SDS011;45574;41.864;12.462;2022-10-16T03:59:24;19.33;;;15.57;;
43756;SDS011;45574;41.864;12.462;2022-10-16T04:02:10;21.10;;;15.18;;
43756;SDS011;45574;41.864;12.462;2022-10-16T04:04:57;21.63;;;15.18;;
43756;SDS011;45574;41.864;12.462;2022-10-16T04:07:44;19.58;;;14.95;;
43756;SDS011;45574;41.864;12.462;2022-10-16T04:10:30;22.10;;;15.82;;
43756;SDS011;45574;41.864;12.462;2022-10-16T04:13:17;21.48;;;14.55;;
43756;SDS011;45574;41.864;12.462;2022-10-16T04:16:03;22.90;;;14.30;;
43756;SDS011;45574;41.864;12.462;2022-10-16T04:18:50;24.10;;;14.90;;
43756;SDS011;45574;41.864;12.462;2022-10-16T04:21:36;22.75;;;15.00;;
43756;SDS011;45574;41.864;12.462;2022-10-16T04:24:23;23.70;;;13.77;;
43756;SDS011;45574;41.864;12.462;2022-10-16T04:27:09;24.23;;;14.95;;
43756;SDS011;45574;41.864;12.462;2022-10-16T04:29:57;21.13;;;14.38;;
43756;SDS011;45574;41.864;12.462;2022-10-16T04:32:47;23.77;;;14.15;;
43756;SDS011;45574;41.864;12.462;2022-10-16T04:35:35;21.23;;;14.93;;
43756;SDS011;45574;41.864;12.462;2022-10-16T04:38:22;20.27;;;14.23;;
43756;SDS011;45574;41.864;12.462;2022-10-16T04:41:08;21.15;;;14.15;;
43756;SDS011;45574;41.864;12.462;2022-10-16T04:43:54;19.65;;;13.88;;
43756;SDS011;45574;41.864;12.462;2022-10-16T04:46:41;19.33;;;13.93;;
43756;SDS011;45574;41.864;12.462;2022-10-16T04:49:27;20.48;;;14.57;;
43756;SDS011;45574;41.864;12.462;2022-10-16T04:52:14;21.63;;;14.27;;
43756;SDS011;45574;41.864;12.462;2022-10-16T04:55:01;19.25;;;14.15;;
43756;SDS011;45574;41.864;12.462;2022-10-16T04:57:48;21.02;;;14.73;;
43756;SDS011;45574;41.864;12.462;2022-10-16T05:00:35;20.00;;;14.57;;
43756;SDS011;45574;41.864;12.462;2022-10-16T05:03:22;20.27;;;14.30;;
43756;SDS011;45574;41.864;12.462;2022-10-16T05:06:08;20.85;;;14.15;;
43756;SDS011;45574;41.864;12.462;2022-10-16T05:08:55;18.40;;;13.45;;
43756;SDS011;45574;41.864;12.462;2022-10-16T05:11:42;20.60;;;13.95;;
43756;SDS011;45574;41.864;12.462;2022-10-16T05:14:29;19.73;;;14.23;;
43756;SDS011;45574;41.864;12.462;2022-10-16T05:17:18;20.58;;;14.63;;
43756;SDS011;45574;41.864;12.462;2022-10-16T05:20:05;20.77;;;13.32;;
43756;SDS011;45574;41.864;12.462;2022-10-16T05:22:52;20.60;;;12.18;;
43756;SDS011;45574;41.864;12.462;2022-10-16T05:25:39;22.25;;;15.20;;
43756;SDS011;45574;41.864;12.462;2022-10-16T05:31:39;19.55;;;13.43;;
43756;SDS011;45574;41.864;12.462;2022-10-16T05:34:25;20.10;;;14.45;;
43756;SDS011;45574;41.864;12.462;2022-10-16T05:37:12;27.50;;;17.55;;
43756;SDS011;45574;41.864;12.462;2022-10-16T05:39:58;19.98;;;13.23;;
43756;SDS011;45574;41.864;12.462;2022-10-16T05:42:45;31.60;;;18.35;;
43756;SDS011;45574;41.864;12.462;2022-10-16T05:45:31;23.60;;;15.70;;
43756;SDS011;45574;41.864;12.462;2022-10-16T05:48:18;28.33;;;14.32;;
43756;SDS011;45574;41.864;12.462;2022-10-16T05:51:07;30.13;;;15.60;;
43756;SDS011;45574;41.864;12.462;2022-10-16T05:53:56;26.10;;;13.65;;
43756;SDS011;45574;41.864;12.462;2022-10-16T05:56:42;21.25;;;13.30;;
43756;SDS011;45574;41.864;12.462;2022-10-16T05:59:29;19.50;;;12.70;;
43756;SDS011;45574;41.864;12.462;2022-10-16T06:02:15;19.77;;;13.52;;
43756;SDS011;45574;41.864;12.462;2022-10-16T06:05:04;22.15;;;12.40;;
43756;SDS011;45574;41.864;12.462;2022-10-16T06:07:54;17.38;;;13.10;;
43756;SDS011;45574;41.864;12.462;2022-10-16T06:10:40;20.45;;;12.85;;
43756;SDS011;45574;41.864;12.462;2022-10-16T06:13:27;15.23;;;11.02;;
43756;SDS011;45574;41.864;12.462;2022-10-16T06:16:22;19.15;;;12.05;;
43756;SDS011;45574;41.864;12.462;2022-10-16T06:19:09;15.60;;;11.85;;
43756;SDS011;45574;41.864;12.462;2022-10-16T06:21:55;15.48;;;11.23;;
43756;SDS011;45574;41.864;12.462;2022-10-16T06:24:43;17.55;;;10.40;;
43756;SDS011;45574;41.864;12.462;2022-10-16T06:27:30;18.08;;;10.77;;
43756;SDS011;45574;41.864;12.462;2022-10-16T06:30:16;17.67;;;10.50;;
43756;SDS011;45574;41.864;12.462;2022-10-16T06:33:03;15.75;;;10.18;;
43756;SDS011;45574;41.864;12.462;2022-10-16T06:35:49;15.55;;;9.23;;
43756;SDS011;45574;41.864;12.462;2022-10-16T06:38:36;17.05;;;9.85;;
43756;SDS011;45574;41.864;12.462;2022-10-16T06:41:26;13.95;;;10.20;;
43756;SDS011;45574;41.864;12.462;2022-10-16T06:44:12;15.75;;;9.70;;
43756;SDS011;45574;41.864;12.462;2022-10-16T06:46:59;12.35;;;9.23;;
43756;SDS011;45574;41.864;12.462;2022-10-16T06:49:45;13.48;;;9.85;;
43756;SDS011;45574;41.864;12.462;2022-10-16T06:52:32;18.98;;;9.85;;
43756;SDS011;45574;41.864;12.462;2022-10-16T06:55:19;14.68;;;9.73;;
43756;SDS011;45574;41.864;12.462;2022-10-16T06:58:06;16.27;;;9.65;;
43756;SDS011;45574;41.864;12.462;2022-10-16T07:00:55;17.20;;;9.25;;
43756;SDS011;45574;41.864;12.462;2022-10-16T07:03:43;13.15;;;8.95;;
43756;SDS011;45574;41.864;12.462;2022-10-16T07:06:31;15.85;;;8.10;;
43756;SDS011;45574;41.864;12.462;2022-10-16T07:09:19;14.98;;;7.80;;
43756;SDS011;45574;41.864;12.462;2022-10-16T07:12:06;10.00;;;7.55;;
43756;SDS011;45574;41.864;12.462;2022-10-16T07:14:52;8.40;;;7.32;;
43756;SDS011;45574;41.864;12.462;2022-10-16T07:17:40;10.60;;;6.60;;
43756;SDS011;45574;41.864;12.462;2022-10-16T07:20:26;10.13;;;7.10;;
43756;SDS011;45574;41.864;12.462;2022-10-16T07:23:12;10.43;;;7.20;;
43756;SDS011;45574;41.864;12.462;2022-10-16T07:25:59;12.25;;;6.57;;
43756;SDS011;45574;41.864;12.462;2022-10-16T07:28:45;9.10;;;6.55;;
43756;SDS011;45574;41.864;12.462;2022-10-16T07:31:32;11.60;;;8.15;;
43756;SDS011;45574;41.864;12.462;2022-10-16T07:34:19;16.27;;;7.43;;
43756;SDS011;45574;41.864;12.462;2022-10-16T07:37:07;14.60;;;7.68;;
43756;SDS011;45574;41.864;12.462;2022-10-16T07:39:54;10.18;;;7.40;;
43756;SDS011;45574;41.864;12.462;2022-10-16T07:42:40;12.65;;;7.80;;
43756;SDS011;45574;41.864;12.462;2022-10-16T07:45:27;12.38;;;7.78;;
43756;SDS011;45574;41.864;12.462;2022-10-16T07:48:13;11.60;;;8.38;;
43756;SDS011;45574;41.864;12.462;2022-10-16T07:51:04;9.98;;;8.18;;
43756;SDS011;45574;41.864;12.462;2022-10-16T07:53:51;11.95;;;8.45;;
43756;SDS011;45574;41.864;12.462;2022-10-16T07:56:38;13.18;;;7.93;;
43756;SDS011;45574;41.864;12.462;2022-10-16T07:59:25;9.90;;;8.63;;
43756;SDS011;45574;41.864;12.462;2022-10-16T08:02:12;13.30;;;8.95;;
43756;SDS011;45574;41.864;12.462;2022-10-16T08:04:58;13.60;;;8.35;;
43756;SDS011;45574;41.864;12.462;2022-10-16T08:07:48;10.63;;;7.53;;
43756;SDS011;45574;41.864;12.462;2022-10-16T08:10:36;10.68;;;7.90;;
43756;SDS011;45574;41.864;12.462;2022-10-16T08:13:22;12.77;;;8.30;;
43756;SDS011;45574;41.864;12.462;2022-10-16T08:16:09;14.48;;;7.88;;
43756;SDS011;45574;41.864;12.462;2022-10-16T08:18:55;13.00;;;7.07;;
43756;SDS011;45574;41.864;12.462;2022-10-16T08:21:42;15.20;;;7.53;;
43756;SDS011;45574;41.864;12.462;2022-10-16T08:24:28;12.77;;;7.78;;
43756;SDS011;45574;41.864;12.462;2022-10-16T08:27:17;12.02;;;7.75;;
43756;SDS011;45574;41.864;12.462;2022-10-16T08:30:03;10.30;;;7.55;;
43756;SDS011;45574;41.864;12.462;2022-10-16T08:32:50;11.27;;;7.78;;
43756;SDS011;45574;41.864;12.462;2022-10-16T08:35:36;12.93;;;7.47;;
43756;SDS011;45574;41.864;12.462;2022-10-16T08:38:23;12.75;;;7.45;;
43756;SDS011;45574;41.864;12.462;2022-10-16T08:41:14;11.73;;;6.82;;
43756;SDS011;45574;41.864;12.462;2022-10-16T08:47:23;10.82;;;7.20;;
43756;SDS011;45574;41.864;12.462;2022-10-16T08:50:12;10.15;;;6.40;;
43756;SDS011;45574;41.864;12.462;2022-10-16T08:53:03;10.55;;;6.97;;
43756;SDS011;45574;41.864;12.462;2022-10-16T08:55:52;7.50;;;6.40;;
43756;SDS011;45574;41.864;12.462;2022-10-16T08:58:40;8.60;;;5.93;;
43756;SDS011;45574;41.864;12.462;2022-10-16T09:01:49;11.93;;;6.50;;
43756;SDS011;45574;41.864;12.462;2022-10-16T09:04:47;12.90;;;7.25;;
43756;SDS011;45574;41.864;12.462;2022-10-16T09:08:03;12.60;;;6.95;;
43756;SDS011;45574;41.864;12.462;2022-10-16T09:11:14;13.98;;;6.97;;
43756;SDS011;45574;41.864;12.462;2022-10-16T09:20:29;8.00;;;6.03;;
43756;SDS011;45574;41.864;12.462;2022-10-16T09:23:39;9.88;;;6.90;;
43756;SDS011;45574;41.864;12.462;2022-10-16T09:26:26;9.65;;;6.40;;
43756;SDS011;45574;41.864;12.462;2022-10-16T09:29:13;8.60;;;6.90;;
43756;SDS011;45574;41.864;12.462;2022-10-16T09:32:07;7.70;;;6.50;;
43756;SDS011;45574;41.864;12.462;2022-10-16T09:35:00;11.68;;;6.93;;
43756;SDS011;45574;41.864;12.462;2022-10-16T09:37:49;10.90;;;6.60;;
43756;SDS011;45574;41.864;12.462;2022-10-16T09:40:37;7.78;;;6.10;;
43756;SDS011;45574;41.864;12.462;2022-10-16T09:49:22;7.78;;;5.47;;
43756;SDS011;45574;41.864;12.462;2022-10-16T09:52:12;8.38;;;5.30;;
43756;SDS011;45574;41.864;12.462;2022-10-16T09:55:13;7.55;;;5.63;;
43756;SDS011;45574;41.864;12.462;2022-10-16T09:58:11;7.68;;;5.38;;
43756;SDS011;45574;41.864;12.462;2022-10-16T10:00:59;11.45;;;5.38;;
43756;SDS011;45574;41.864;12.462;2022-10-16T10:03:46;10.23;;;4.93;;
43756;SDS011;45574;41.864;12.462;2022-10-16T10:06:35;9.52;;;4.80;;
43756;SDS011;45574;41.864;12.462;2022-10-16T10:09:27;10.70;;;4.75;;
43756;SDS011;45574;41.864;12.462;2022-10-16T10:12:26;7.75;;;5.22;;
43756;SDS011;45574;41.864;12.462;2022-10-16T10:15:14;6.88;;;5.05;;
43756;SDS011;45574;41.864;12.462;2022-10-16T10:18:21;6.32;;;4.60;;
43756;SDS011;45574;41.864;12.462;2022-10-16T10:21:12;11.00;;;4.75;;
43756;SDS011;45574;41.864;12.462;2022-10-16T10:24:01;7.68;;;4.32;;
43756;SDS011;45574;41.864;12.462;2022-10-16T10:26:56;8.15;;;3.92;;
43756;SDS011;45574;41.864;12.462;2022-10-16T10:36:36;5.22;;;3.10;;
43756;SDS011;45574;41.864;12.462;2022-10-16T10:45:38;5.68;;;2.75;;
43756;SDS011;45574;41.864;12.462;2022-10-16T10:57:29;3.53;;;2.22;;
43756;SDS011;45574;41.864;12.462;2022-10-16T11:09:18;5.13;;;2.00;;
43756;SDS011;45574;41.864;12.462;2022-10-16T11:12:13;5.50;;;1.85;;
43756;SDS011;45574;41.864;12.462;2022-10-16T11:18:08;3.20;;;1.90;;
43756;SDS011;45574;41.864;12.462;2022-10-16T11:21:04;2.13;;;1.90;;
43756;SDS011;45574;41.864;12.462;2022-10-16T11:24:01;3.72;;;2.00;;
43756;SDS011;45574;41.864;12.462;2022-10-16T11:26:56;5.55;;;2.17;;
43756;SDS011;45574;41.864;12.462;2022-10-16T11:29:58;5.00;;;2.00;;
43756;SDS011;45574;41.864;12.462;2022-10-16T11:32:56;4.35;;;2.35;;
43756;SDS011;45574;41.864;12.462;2022-10-16T11:36:13;4.60;;;2.03;;
43756;SDS011;45574;41.864;12.462;2022-10-16T11:42:13;3.75;;;2.00;;
43756;SDS011;45574;41.864;12.462;2022-10-16T11:45:15;6.80;;;2.10;;
43756;SDS011;45574;41.864;12.462;2022-10-16T11:57:12;6.50;;;1.90;;
43756;SDS011;45574;41.864;12.462;2022-10-16T12:00:23;4.00;;;2.40;;
43756;SDS011;45574;41.864;12.462;2022-10-16T12:03:20;4.22;;;2.63;;
43756;SDS011;45574;41.864;12.462;2022-10-16T12:09:26;3.58;;;2.47;;
43756;SDS011;45574;41.864;12.462;2022-10-16T12:15:32;3.95;;;2.10;;
43756;SDS011;45574;41.864;12.462;2022-10-16T12:18:21;4.00;;;2.20;;
43756;SDS011;45574;41.864;12.462;2022-10-16T12:21:09;6.45;;;2.30;;
43756;SDS011;45574;41.864;12.462;2022-10-16T12:24:00;2.65;;;2.10;;
43756;SDS011;45574;41.864;12.462;2022-10-16T12:26:50;3.58;;;2.28;;
43756;SDS011;45574;41.864;12.462;2022-10-16T12:29:39;4.07;;;2.25;;
43756;SDS011;45574;41.864;12.462;2022-10-16T12:35:32;4.50;;;2.40;;
43756;SDS011;45574;41.864;12.462;2022-10-16T12:38:24;3.05;;;2.30;;
43756;SDS011;45574;41.864;12.462;2022-10-16T12:41:23;5.28;;;2.63;;
43756;SDS011;45574;41.864;12.462;2022-10-16T12:44:24;3.35;;;1.95;;
43756;SDS011;45574;41.864;12.462;2022-10-16T12:53:21;3.42;;;2.05;;
43756;SDS011;45574;41.864;12.462;2022-10-16T13:02:18;4.10;;;2.30;;
43756;SDS011;45574;41.864;12.462;2022-10-16T13:18:28;3.80;;;2.20;;
43756;SDS011;45574;41.864;12.462;2022-10-16T13:21:28;3.85;;;1.88;;
43756;SDS011;45574;41.864;12.462;2022-10-16T13:24:36;3.38;;;1.90;;
43756;SDS011;45574;41.864;12.462;2022-10-16T13:27:55;5.75;;;1.70;;
43756;SDS011;45574;41.864;12.462;2022-10-16T13:30:51;4.03;;;1.50;;
43756;SDS011;45574;41.864;12.462;2022-10-16T13:33:41;6.32;;;1.75;;
43756;SDS011;45574;41.864;12.462;2022-10-16T13:36:30;2.95;;;1.48;;
43756;SDS011;45574;41.864;12.462;2022-10-16T13:39:28;3.63;;;1.55;;
43756;SDS011;45574;41.864;12.462;2022-10-16T13:42:28;2.83;;;1.48;;
43756;SDS011;45574;41.864;12.462;2022-10-16T13:45:22;5.55;;;1.50;;
43756;SDS011;45574;41.864;12.462;2022-10-16T13:48:11;5.10;;;1.40;;
43756;SDS011;45574;41.864;12.462;2022-10-16T13:51:19;3.85;;;1.70;;
43756;SDS011;45574;41.864;12.462;2022-10-16T13:54:05;5.10;;;1.48;;
43756;SDS011;45574;41.864;12.462;2022-10-16T13:56:51;3.58;;;1.90;;
43756;SDS011;45574;41.864;12.462;2022-10-16T13:59:38;7.22;;;1.88;;
43756;SDS011;45574;41.864;12.462;2022-10-16T14:05:20;4.22;;;1.73;;
43756;SDS011;45574;41.864;12.462;2022-10-16T14:08:09;4.28;;;1.85;;
43756;SDS011;45574;41.864;12.462;2022-10-16T14:10:58;3.75;;;1.90;;
43756;SDS011;45574;41.864;12.462;2022-10-16T14:13:47;5.05;;;1.55;;
43756;SDS011;45574;41.864;12.462;2022-10-16T14:16:34;5.50;;;1.58;;
43756;SDS011;45574;41.864;12.462;2022-10-16T14:19:22;4.97;;;1.70;;
43756;SDS011;45574;41.864;12.462;2022-10-16T14:22:21;3.65;;;1.77;;
43756;SDS011;45574;41.864;12.462;2022-10-16T14:30:59;4.10;;;1.98;;
43756;SDS011;45574;41.864;12.462;2022-10-16T14:33:47;5.10;;;1.92;;
43756;SDS011;45574;41.864;12.462;2022-10-16T14:36:33;4.28;;;1.75;;
43756;SDS011;45574;41.864;12.462;2022-10-16T14:39:20;4.00;;;1.80;;
43756;SDS011;45574;41.864;12.462;2022-10-16T14:42:14;3.75;;;1.55;;
43756;SDS011;45574;41.864;12.462;2022-10-16T14:45:07;4.88;;;1.50;;
43756;SDS011;45574;41.864;12.462;2022-10-16T14:47:56;5.15;;;1.55;;
43756;SDS011;45574;41.864;12.462;2022-10-16T14:50:44;3.65;;;1.40;;
43756;SDS011;45574;41.864;12.462;2022-10-16T14:53:31;4.65;;;1.77;;
43756;SDS011;45574;41.864;12.462;2022-10-16T14:56:21;4.43;;;1.70;;
43756;SDS011;45574;41.864;12.462;2022-10-16T14:59:13;3.53;;;1.40;;
43756;SDS011;45574;41.864;12.462;2022-10-16T15:02:47;3.90;;;1.40;;
43756;SDS011;45574;41.864;12.462;2022-10-16T15:05:14;4.72;;;1.50;;
43756;SDS011;45574;41.864;12.462;2022-10-16T15:08:06;6.15;;;1.90;;
43756;SDS011;45574;41.864;12.462;2022-10-16T15:10:52;4.85;;;1.40;;
43756;SDS011;45574;41.864;12.462;2022-10-16T15:13:39;8.20;;;1.70;;
43756;SDS011;45574;41.864;12.462;2022-10-16T15:16:25;6.32;;;1.55;;
43756;SDS011;45574;41.864;12.462;2022-10-16T15:19:12;7.30;;;1.60;;
43756;SDS011;45574;41.864;12.462;2022-10-16T15:21:59;2.95;;;1.50;;
43756;SDS011;45574;41.864;12.462;2022-10-16T15:24:47;6.65;;;2.00;;
43756;SDS011;45574;41.864;12.462;2022-10-16T15:27:33;6.03;;;1.50;;
43756;SDS011;45574;41.864;12.462;2022-10-16T15:30:25;5.47;;;1.70;;
43756;SDS011;45574;41.864;12.462;2022-10-16T15:33:17;5.10;;;1.65;;
43756;SDS011;45574;41.864;12.462;2022-10-16T15:36:06;5.95;;;1.88;;
43756;SDS011;45574;41.864;12.462;2022-10-16T15:38:53;3.85;;;1.25;;
43756;SDS011;45574;41.864;12.462;2022-10-16T15:41:47;5.78;;;1.55;;
43756;SDS011;45574;41.864;12.462;2022-10-16T15:44:36;5.43;;;1.60;;
43756;SDS011;45574;41.864;12.462;2022-10-16T15:47:23;6.05;;;1.60;;
43756;SDS011;45574;41.864;12.462;2022-10-16T15:50:10;3.65;;;1.30;;
43756;SDS011;45574;41.864;12.462;2022-10-16T15:52:58;4.13;;;1.60;;
43756;SDS011;45574;41.864;12.462;2022-10-16T15:55:45;5.90;;;1.67;;
43756;SDS011;45574;41.864;12.462;2022-10-16T15:58:31;6.97;;;1.52;;
43756;SDS011;45574;41.864;12.462;2022-10-16T16:01:18;4.30;;;1.40;;
43756;SDS011;45574;41.864;12.462;2022-10-16T16:04:04;5.28;;;1.20;;
43756;SDS011;45574;41.864;12.462;2022-10-16T16:06:51;2.63;;;1.30;;
43756;SDS011;45574;41.864;12.462;2022-10-16T16:09:38;4.38;;;1.45;;
43756;SDS011;45574;41.864;12.462;2022-10-16T16:12:25;5.55;;;1.50;;
43756;SDS011;45574;41.864;12.462;2022-10-16T16:15:11;4.85;;;1.48;;
43756;SDS011;45574;41.864;12.462;2022-10-16T16:17:58;5.80;;;1.67;;
43756;SDS011;45574;41.864;12.462;2022-10-16T16:20:46;6.38;;;1.52;;
43756;SDS011;45574;41.864;12.462;2022-10-16T16:23:32;4.82;;;1.60;;
43756;SDS011;45574;41.864;12.462;2022-10-16T16:29:14;10.30;;;1.73;;
43756;SDS011;45574;41.864;12.462;2022-10-16T16:32:01;7.35;;;1.85;;
43756;SDS011;45574;41.864;12.462;2022-10-16T16:34:48;5.53;;;1.83;;
43756;SDS011;45574;41.864;12.462;2022-10-16T16:37:34;6.75;;;1.80;;
43756;SDS011;45574;41.864;12.462;2022-10-16T16:40:21;5.18;;;1.63;;
43756;SDS011;45574;41.864;12.462;2022-10-16T16:43:07;6.75;;;2.10;;
43756;SDS011;45574;41.864;12.462;2022-10-16T16:45:54;8.25;;;1.75;;
43756;SDS011;45574;41.864;12.462;2022-10-16T16:48:41;6.90;;;1.80;;
43756;SDS011;45574;41.864;12.462;2022-10-16T16:51:27;4.28;;;1.60;;
43756;SDS011;45574;41.864;12.462;2022-10-16T16:54:15;8.77;;;1.90;;
43756;SDS011;45574;41.864;12.462;2022-10-16T16:57:01;7.55;;;1.85;;
43756;SDS011;45574;41.864;12.462;2022-10-16T16:59:49;6.10;;;1.83;;
43756;SDS011;45574;41.864;12.462;2022-10-16T17:02:37;7.18;;;2.00;;
43756;SDS011;45574;41.864;12.462;2022-10-16T17:05:29;7.28;;;1.98;;
43756;SDS011;45574;41.864;12.462;2022-10-16T17:08:15;8.52;;;2.58;;
43756;SDS011;45574;41.864;12.462;2022-10-16T17:11:02;7.30;;;2.03;;
43756;SDS011;45574;41.864;12.462;2022-10-16T17:13:50;6.25;;;2.30;;
43756;SDS011;45574;41.864;12.462;2022-10-16T17:16:38;7.55;;;2.30;;
43756;SDS011;45574;41.864;12.462;2022-10-16T17:19:25;7.25;;;2.13;;
43756;SDS011;45574;41.864;12.462;2022-10-16T17:22:11;8.00;;;2.10;;
43756;SDS011;45574;41.864;12.462;2022-10-16T17:24:58;7.53;;;2.53;;
43756;SDS011;45574;41.864;12.462;2022-10-16T17:27:44;7.65;;;2.08;;
43756;SDS011;45574;41.864;12.462;2022-10-16T17:30:31;6.85;;;2.15;;
43756;SDS011;45574;41.864;12.462;2022-10-16T17:33:19;10.68;;;2.38;;
43756;SDS011;45574;41.864;12.462;2022-10-16T17:36:06;12.98;;;2.85;;
43756;SDS011;45574;41.864;12.462;2022-10-16T17:38:53;5.00;;;2.25;;
43756;SDS011;45574;41.864;12.462;2022-10-16T17:41:39;9.57;;;2.22;;
43756;SDS011;45574;41.864;12.462;2022-10-16T17:44:26;7.18;;;2.50;;
43756;SDS011;45574;41.864;12.462;2022-10-16T17:47:12;7.53;;;2.17;;
43756;SDS011;45574;41.864;12.462;2022-10-16T17:49:58;8.95;;;2.40;;
43756;SDS011;45574;41.864;12.462;2022-10-16T17:52:45;9.57;;;2.47;;
43756;SDS011;45574;41.864;12.462;2022-10-16T17:55:36;12.00;;;2.53;;
43756;SDS011;45574;41.864;12.462;2022-10-16T17:58:26;12.85;;;2.95;;
43756;SDS011;45574;41.864;12.462;2022-10-16T18:01:13;10.95;;;2.80;;
43756;SDS011;45574;41.864;12.462;2022-10-16T18:04:13;10.55;;;2.72;;
43756;SDS011;45574;41.864;12.462;2022-10-16T18:07:01;11.65;;;2.70;;
43756;SDS011;45574;41.864;12.462;2022-10-16T18:09:47;6.57;;;2.70;;
43756;SDS011;45574;41.864;12.462;2022-10-16T18:12:34;11.02;;;2.80;;
43756;SDS011;45574;41.864;12.462;2022-10-16T18:15:20;11.52;;;2.80;;
43756;SDS011;45574;41.864;12.462;2022-10-16T18:18:07;7.57;;;2.60;;
43756;SDS011;45574;41.864;12.462;2022-10-16T18:21:00;10.70;;;2.58;;
43756;SDS011;45574;41.864;12.462;2022-10-16T18:23:56;15.43;;;3.53;;
43756;SDS011;45574;41.864;12.462;2022-10-16T18:26:45;8.48;;;3.42;;
43756;SDS011;45574;41.864;12.462;2022-10-16T18:32:42;5.45;;;3.10;;
43756;SDS011;45574;41.864;12.462;2022-10-16T18:35:51;11.70;;;4.05;;
43756;SDS011;45574;41.864;12.462;2022-10-16T18:39:04;14.75;;;3.50;;
43756;SDS011;45574;41.864;12.462;2022-10-16T18:42:03;12.48;;;4.18;;